sensor_id;sensor_type;location;lat;lon;timestamp;temperature;humidity
12152;DHT22;6139;51.274;7.128;2022-10-31T00:00:09;14.70;99.90
12152;DHT22;6139;51.274;7.128;2022-10-31T00:01:13;14.70;99.90
12152;DHT22;6139;51.274;7.128;2022-10-31T00:02:15;14.70;99.90
12152;DHT22;6139;51.274;7.128;2022-10-31T00:03:17;14.70;99.90
12152;DHT22;6139;51.274;7.128;2022-10-31T00:04:18;14.70;99.90
12152;DHT22;6139;51.274;7.128;2022-10-31T00:05:20;14.70;99.90
12152;DHT22;6139;51.274;7.128;2022-10-31T00:06:21;14.70;99.90
12152;DHT22;6139;51.274;7.128;2022-10-31T00:07:23;14.70;99.90
12152;DHT22;6139;51.274;7.128;2022-10-31T00:08:24;14.70;99.90
12152;DHT22;6139;51.274;7.128;2022-10-31T00:09:25;14.70;99.90
12152;DHT22;6139;51.274;7.128;2022-10-31T00:10:26;14.70;99.90
12152;DHT22;6139;51.274;7.128;2022-10-31T00:11:29;14.80;99.90
12152;DHT22;6139;51.274;7.128;2022-10-31T00:12:30;14.80;99.90
12152;DHT22;6139;51.274;7.128;2022-10-31T00:13:33;14.80;99.90
12152;DHT22;6139;51.274;7.128;2022-10-31T00:14:34;14.70;99.90
12152;DHT22;6139;51.274;7.128;2022-10-31T00:15:36;14.80;99.90
12152;DHT22;6139;51.274;7.128;2022-10-31T00:16:38;14.70;99.90
12152;DHT22;6139;51.274;7.128;2022-10-31T00:17:41;14.70;99.90
12152;DHT22;6139;51.274;7.128;2022-10-31T00:18:42;14.70;99.90
12152;DHT22;6139;51.274;7.128;2022-10-31T00:19:44;14.60;99.90
12152;DHT22;6139;51.274;7.128;2022-10-31T00:20:45;14.70;99.90
12152;DHT22;6139;51.274;7.128;2022-10-31T00:21:47;14.70;99.90
12152;DHT22;6139;51.274;7.128;2022-10-31T00:22:49;14.70;99.90
12152;DHT22;6139;51.274;7.128;2022-10-31T00:23:50;14.80;99.90
12152;DHT22;6139;51.274;7.128;2022-10-31T00:24:52;14.80;99.90
12152;DHT22;6139;51.274;7.128;2022-10-31T00:25:53;14.90;99.90
12152;DHT22;6139;51.274;7.128;2022-10-31T00:26:55;14.80;99.90
12152;DHT22;6139;51.274;7.128;2022-10-31T00:27:56;14.80;99.90
12152;DHT22;6139;51.274;7.128;2022-10-31T00:29:00;14.90;99.90
12152;DHT22;6139;51.274;7.128;2022-10-31T00:30:01;14.80;99.90
12152;DHT22;6139;51.274;7.128;2022-10-31T00:31:06;14.80;99.90
12152;DHT22;6139;51.274;7.128;2022-10-31T00:32:07;14.80;99.90
12152;DHT22;6139;51.274;7.128;2022-10-31T00:33:09;14.80;99.90
12152;DHT22;6139;51.274;7.128;2022-10-31T00:34:11;14.80;99.90
12152;DHT22;6139;51.274;7.128;2022-10-31T00:35:13;14.70;99.90
12152;DHT22;6139;51.274;7.128;2022-10-31T00:36:15;14.70;99.90
12152;DHT22;6139;51.274;7.128;2022-10-31T00:37:18;14.70;99.90
12152;DHT22;6139;51.274;7.128;2022-10-31T00:38:19;14.70;99.90
12152;DHT22;6139;51.274;7.128;2022-10-31T00:39:21;14.70;99.90
12152;DHT22;6139;51.274;7.128;2022-10-31T00:40:22;14.70;99.90
12152;DHT22;6139;51.274;7.128;2022-10-31T00:41:24;14.70;99.90
12152;DHT22;6139;51.274;7.128;2022-10-31T00:42:25;14.70;99.90
12152;DHT22;6139;51.274;7.128;2022-10-31T00:43:27;14.60;99.90
12152;DHT22;6139;51.274;7.128;2022-10-31T00:44:30;14.60;99.90
12152;DHT22;6139;51.274;7.128;2022-10-31T00:45:32;14.50;99.90
12152;DHT22;6139;51.274;7.128;2022-10-31T00:46:33;14.50;99.90
12152;DHT22;6139;51.274;7.128;2022-10-31T00:47:35;14.40;99.90
12152;DHT22;6139;51.274;7.128;2022-10-31T00:48:36;14.50;99.90
12152;DHT22;6139;51.274;7.128;2022-10-31T00:49:38;14.50;99.90
12152;DHT22;6139;51.274;7.128;2022-10-31T00:50:40;14.50;99.90
12152;DHT22;6139;51.274;7.128;2022-10-31T00:51:42;14.40;99.90
12152;DHT22;6139;51.274;7.128;2022-10-31T00:52:43;14.40;99.90
12152;DHT22;6139;51.274;7.128;2022-10-31T00:53:45;14.40;99.90
12152;DHT22;6139;51.274;7.128;2022-10-31T00:54:46;14.40;99.90
12152;DHT22;6139;51.274;7.128;2022-10-31T00:55:48;14.50;99.90
12152;DHT22;6139;51.274;7.128;2022-10-31T00:56:49;14.50;99.90
12152;DHT22;6139;51.274;7.128;2022-10-31T00:57:51;14.50;99.90
12152;DHT22;6139;51.274;7.128;2022-10-31T00:58:52;14.50;99.90
12152;DHT22;6139;51.274;7.128;2022-10-31T00:59:56;14.50;99.90
12152;DHT22;6139;51.274;7.128;2022-10-31T01:00:57;14.60;99.90
12152;DHT22;6139;51.274;7.128;2022-10-31T01:01:59;14.60;99.90
12152;DHT22;6139;51.274;7.128;2022-10-31T01:03:00;14.60;99.90
12152;DHT22;6139;51.274;7.128;2022-10-31T01:04:03;14.60;99.90
12152;DHT22;6139;51.274;7.128;2022-10-31T01:05:04;14.60;99.90
12152;DHT22;6139;51.274;7.128;2022-10-31T01:06:08;14.60;99.90
12152;DHT22;6139;51.274;7.128;2022-10-31T01:07:09;14.60;99.90
12152;DHT22;6139;51.274;7.128;2022-10-31T01:08:12;14.60;99.90
12152;DHT22;6139;51.274;7.128;2022-10-31T01:09:13;14.60;99.90
12152;DHT22;6139;51.274;7.128;2022-10-31T01:10:15;14.70;99.90
12152;DHT22;6139;51.274;7.128;2022-10-31T01:11:19;14.70;99.90
12152;DHT22;6139;51.274;7.128;2022-10-31T01:12:22;14.70;99.90
12152;DHT22;6139;51.274;7.128;2022-10-31T01:13:23;14.70;99.90
12152;DHT22;6139;51.274;7.128;2022-10-31T01:14:25;14.70;99.90
12152;DHT22;6139;51.274;7.128;2022-10-31T01:15:27;14.70;99.90
12152;DHT22;6139;51.274;7.128;2022-10-31T01:16:29;14.70;99.90
12152;DHT22;6139;51.274;7.128;2022-10-31T01:17:31;14.70;99.90
12152;DHT22;6139;51.274;7.128;2022-10-31T01:18:34;14.70;99.90
12152;DHT22;6139;51.274;7.128;2022-10-31T01:19:35;14.70;99.90
12152;DHT22;6139;51.274;7.128;2022-10-31T01:20:37;14.70;99.90
12152;DHT22;6139;51.274;7.128;2022-10-31T01:21:38;14.70;99.90
12152;DHT22;6139;51.274;7.128;2022-10-31T01:22:40;14.70;99.90
12152;DHT22;6139;51.274;7.128;2022-10-31T01:23:41;14.70;99.90
12152;DHT22;6139;51.274;7.128;2022-10-31T01:24:43;14.80;99.90
12152;DHT22;6139;51.274;7.128;2022-10-31T01:25:44;14.80;99.90
12152;DHT22;6139;51.274;7.128;2022-10-31T01:26:46;14.80;99.90
12152;DHT22;6139;51.274;7.128;2022-10-31T01:27:47;14.80;99.90
12152;DHT22;6139;51.274;7.128;2022-10-31T01:28:49;14.80;99.90
12152;DHT22;6139;51.274;7.128;2022-10-31T01:29:51;14.80;99.90
12152;DHT22;6139;51.274;7.128;2022-10-31T01:30:54;14.80;99.90
12152;DHT22;6139;51.274;7.128;2022-10-31T01:31:55;14.80;99.90
12152;DHT22;6139;51.274;7.128;2022-10-31T01:32:57;14.80;99.90
12152;DHT22;6139;51.274;7.128;2022-10-31T01:33:58;14.80;99.90
12152;DHT22;6139;51.274;7.128;2022-10-31T01:35:00;14.80;99.90
12152;DHT22;6139;51.274;7.128;2022-10-31T01:36:11;14.80;99.90
12152;DHT22;6139;51.274;7.128;2022-10-31T01:37:13;14.80;99.90
12152;DHT22;6139;51.274;7.128;2022-10-31T01:38:14;14.70;99.90
12152;DHT22;6139;51.274;7.128;2022-10-31T01:39:16;14.70;99.90
12152;DHT22;6139;51.274;7.128;2022-10-31T01:40:17;14.70;99.90
12152;DHT22;6139;51.274;7.128;2022-10-31T01:41:22;14.60;99.90
12152;DHT22;6139;51.274;7.128;2022-10-31T01:42:23;14.60;99.90
12152;DHT22;6139;51.274;7.128;2022-10-31T01:43:41;14.60;99.90
12152;DHT22;6139;51.274;7.128;2022-10-31T01:45:03;14.60;99.90
12152;DHT22;6139;51.274;7.128;2022-10-31T01:46:07;14.60;99.90
12152;DHT22;6139;51.274;7.128;2022-10-31T01:47:14;14.60;99.90
12152;DHT22;6139;51.274;7.128;2022-10-31T01:48:20;14.60;99.90
12152;DHT22;6139;51.274;7.128;2022-10-31T01:49:26;14.60;99.90
12152;DHT22;6139;51.274;7.128;2022-10-31T01:50:35;14.60;99.90
12152;DHT22;6139;51.274;7.128;2022-10-31T01:51:42;14.70;99.90
12152;DHT22;6139;51.274;7.128;2022-10-31T01:52:47;14.80;99.90
12152;DHT22;6139;51.274;7.128;2022-10-31T01:53:52;14.80;99.90
12152;DHT22;6139;51.274;7.128;2022-10-31T01:54:58;14.80;99.90
12152;DHT22;6139;51.274;7.128;2022-10-31T01:56:00;14.70;99.90
12152;DHT22;6139;51.274;7.128;2022-10-31T01:57:03;14.70;99.90
12152;DHT22;6139;51.274;7.128;2022-10-31T01:58:08;14.70;99.90
12152;DHT22;6139;51.274;7.128;2022-10-31T01:59:13;14.70;99.90
12152;DHT22;6139;51.274;7.128;2022-10-31T02:00:17;14.70;99.90
12152;DHT22;6139;51.274;7.128;2022-10-31T02:01:22;14.70;99.90
12152;DHT22;6139;51.274;7.128;2022-10-31T02:02:24;14.70;99.90
12152;DHT22;6139;51.274;7.128;2022-10-31T02:03:27;14.70;99.90
12152;DHT22;6139;51.274;7.128;2022-10-31T02:04:30;14.60;99.90
12152;DHT22;6139;51.274;7.128;2022-10-31T02:05:32;14.60;99.90
12152;DHT22;6139;51.274;7.128;2022-10-31T02:06:37;14.50;99.90
12152;DHT22;6139;51.274;7.128;2022-10-31T02:07:43;14.40;99.90
12152;DHT22;6139;51.274;7.128;2022-10-31T02:08:46;14.30;99.90
12152;DHT22;6139;51.274;7.128;2022-10-31T02:09:49;14.20;99.90
12152;DHT22;6139;51.274;7.128;2022-10-31T02:10:52;14.10;99.90
12152;DHT22;6139;51.274;7.128;2022-10-31T02:11:56;14.10;99.90
12152;DHT22;6139;51.274;7.128;2022-10-31T02:13:00;14.10;99.90
12152;DHT22;6139;51.274;7.128;2022-10-31T02:14:03;14.00;99.90
12152;DHT22;6139;51.274;7.128;2022-10-31T02:15:06;13.90;99.90
12152;DHT22;6139;51.274;7.128;2022-10-31T02:16:09;13.90;99.90
12152;DHT22;6139;51.274;7.128;2022-10-31T02:17:11;13.90;99.90
12152;DHT22;6139;51.274;7.128;2022-10-31T02:18:14;13.90;99.90
12152;DHT22;6139;51.274;7.128;2022-10-31T02:19:21;13.90;99.90
12152;DHT22;6139;51.274;7.128;2022-10-31T02:20:29;13.90;99.90
12152;DHT22;6139;51.274;7.128;2022-10-31T02:21:37;13.90;99.90
12152;DHT22;6139;51.274;7.128;2022-10-31T02:24:34;13.90;99.90
12152;DHT22;6139;51.274;7.128;2022-10-31T02:27:48;13.90;99.90
12152;DHT22;6139;51.274;7.128;2022-10-31T02:29:08;13.90;99.90
12152;DHT22;6139;51.274;7.128;2022-10-31T02:30:20;13.90;99.90
12152;DHT22;6139;51.274;7.128;2022-10-31T02:31:31;13.90;99.90
12152;DHT22;6139;51.274;7.128;2022-10-31T02:32:46;13.90;99.90
12152;DHT22;6139;51.274;7.128;2022-10-31T02:33:57;13.90;99.90
12152;DHT22;6139;51.274;7.128;2022-10-31T02:35:08;13.90;99.90
12152;DHT22;6139;51.274;7.128;2022-10-31T02:36:15;13.90;99.90
12152;DHT22;6139;51.274;7.128;2022-10-31T02:37:23;13.90;99.90
12152;DHT22;6139;51.274;7.128;2022-10-31T02:38:38;13.90;99.90
12152;DHT22;6139;51.274;7.128;2022-10-31T02:39:53;13.90;99.90
12152;DHT22;6139;51.274;7.128;2022-10-31T02:41:13;14.00;99.90
12152;DHT22;6139;51.274;7.128;2022-10-31T02:42:29;13.90;99.90
12152;DHT22;6139;51.274;7.128;2022-10-31T02:43:40;13.90;99.90
12152;DHT22;6139;51.274;7.128;2022-10-31T02:44:48;13.90;99.90
12152;DHT22;6139;51.274;7.128;2022-10-31T02:45:57;13.90;99.90
12152;DHT22;6139;51.274;7.128;2022-10-31T02:47:04;13.90;99.90
12152;DHT22;6139;51.274;7.128;2022-10-31T02:48:10;13.90;99.90
12152;DHT22;6139;51.274;7.128;2022-10-31T02:49:21;13.90;99.90
12152;DHT22;6139;51.274;7.128;2022-10-31T02:50:27;13.90;99.90
12152;DHT22;6139;51.274;7.128;2022-10-31T02:51:29;13.90;99.90
12152;DHT22;6139;51.274;7.128;2022-10-31T02:52:33;13.80;99.90
12152;DHT22;6139;51.274;7.128;2022-10-31T02:53:37;13.80;99.90
12152;DHT22;6139;51.274;7.128;2022-10-31T02:54:42;13.70;99.90
12152;DHT22;6139;51.274;7.128;2022-10-31T02:55:55;13.70;99.90
12152;DHT22;6139;51.274;7.128;2022-10-31T02:57:00;13.70;99.90
12152;DHT22;6139;51.274;7.128;2022-10-31T02:58:06;13.70;99.90
12152;DHT22;6139;51.274;7.128;2022-10-31T02:59:09;13.70;99.90
12152;DHT22;6139;51.274;7.128;2022-10-31T03:00:11;13.70;99.90
12152;DHT22;6139;51.274;7.128;2022-10-31T03:01:31;13.70;99.90
12152;DHT22;6139;51.274;7.128;2022-10-31T03:02:46;13.60;99.90
12152;DHT22;6139;51.274;7.128;2022-10-31T03:04:00;13.60;99.90
12152;DHT22;6139;51.274;7.128;2022-10-31T03:05:22;13.60;99.90
12152;DHT22;6139;51.274;7.128;2022-10-31T03:06:30;13.60;99.90
12152;DHT22;6139;51.274;7.128;2022-10-31T03:07:42;13.50;99.90
12152;DHT22;6139;51.274;7.128;2022-10-31T03:08:54;13.40;99.90
12152;DHT22;6139;51.274;7.128;2022-10-31T03:10:04;13.40;99.90
12152;DHT22;6139;51.274;7.128;2022-10-31T03:11:08;13.40;99.90
12152;DHT22;6139;51.274;7.128;2022-10-31T03:12:14;13.40;99.90
12152;DHT22;6139;51.274;7.128;2022-10-31T03:13:23;13.30;99.90
12152;DHT22;6139;51.274;7.128;2022-10-31T03:14:33;13.30;99.90
12152;DHT22;6139;51.274;7.128;2022-10-31T03:15:39;13.30;99.90
12152;DHT22;6139;51.274;7.128;2022-10-31T03:16:46;13.30;99.90
12152;DHT22;6139;51.274;7.128;2022-10-31T03:17:54;13.30;99.90
12152;DHT22;6139;51.274;7.128;2022-10-31T03:19:01;13.40;99.90
12152;DHT22;6139;51.274;7.128;2022-10-31T03:20:06;13.40;99.90
12152;DHT22;6139;51.274;7.128;2022-10-31T03:21:12;13.40;99.90
12152;DHT22;6139;51.274;7.128;2022-10-31T03:22:17;13.40;99.90
12152;DHT22;6139;51.274;7.128;2022-10-31T03:23:20;13.40;99.90
12152;DHT22;6139;51.274;7.128;2022-10-31T03:24:27;13.40;99.90
12152;DHT22;6139;51.274;7.128;2022-10-31T03:25:31;13.40;99.90
12152;DHT22;6139;51.274;7.128;2022-10-31T03:26:35;13.40;99.90
12152;DHT22;6139;51.274;7.128;2022-10-31T03:27:40;13.30;99.90
12152;DHT22;6139;51.274;7.128;2022-10-31T03:28:46;13.30;99.90
12152;DHT22;6139;51.274;7.128;2022-10-31T03:29:49;13.30;99.90
12152;DHT22;6139;51.274;7.128;2022-10-31T03:30:53;13.20;99.90
12152;DHT22;6139;51.274;7.128;2022-10-31T03:31:58;13.30;99.90
12152;DHT22;6139;51.274;7.128;2022-10-31T03:33:04;13.30;99.90
12152;DHT22;6139;51.274;7.128;2022-10-31T03:34:08;13.40;99.90
12152;DHT22;6139;51.274;7.128;2022-10-31T03:35:11;13.40;99.90
12152;DHT22;6139;51.274;7.128;2022-10-31T03:36:15;13.40;99.90
12152;DHT22;6139;51.274;7.128;2022-10-31T03:37:21;13.40;99.90
12152;DHT22;6139;51.274;7.128;2022-10-31T03:38:22;13.40;99.90
12152;DHT22;6139;51.274;7.128;2022-10-31T03:39:25;13.40;99.90
12152;DHT22;6139;51.274;7.128;2022-10-31T03:40:27;13.50;99.90
12152;DHT22;6139;51.274;7.128;2022-10-31T03:41:33;13.50;99.90
12152;DHT22;6139;51.274;7.128;2022-10-31T03:42:39;13.50;99.90
12152;DHT22;6139;51.274;7.128;2022-10-31T03:43:43;13.40;99.90
12152;DHT22;6139;51.274;7.128;2022-10-31T03:44:51;13.40;99.90
12152;DHT22;6139;51.274;7.128;2022-10-31T03:45:54;13.40;99.90
12152;DHT22;6139;51.274;7.128;2022-10-31T03:46:57;13.50;99.90
12152;DHT22;6139;51.274;7.128;2022-10-31T03:47:59;13.50;99.90
12152;DHT22;6139;51.274;7.128;2022-10-31T03:49:02;13.60;99.90
12152;DHT22;6139;51.274;7.128;2022-10-31T03:50:05;13.60;99.90
12152;DHT22;6139;51.274;7.128;2022-10-31T03:51:11;13.60;99.90
12152;DHT22;6139;51.274;7.128;2022-10-31T03:52:21;13.70;99.90
12152;DHT22;6139;51.274;7.128;2022-10-31T03:53:27;13.60;99.90
12152;DHT22;6139;51.274;7.128;2022-10-31T03:54:36;13.50;99.90
12152;DHT22;6139;51.274;7.128;2022-10-31T03:55:44;13.50;99.90
12152;DHT22;6139;51.274;7.128;2022-10-31T03:56:50;13.50;99.90
12152;DHT22;6139;51.274;7.128;2022-10-31T03:57:59;13.60;99.90
12152;DHT22;6139;51.274;7.128;2022-10-31T03:59:07;13.60;99.90
12152;DHT22;6139;51.274;7.128;2022-10-31T04:00:13;13.60;99.90
12152;DHT22;6139;51.274;7.128;2022-10-31T04:01:21;13.60;99.90
12152;DHT22;6139;51.274;7.128;2022-10-31T04:02:28;13.60;99.90
12152;DHT22;6139;51.274;7.128;2022-10-31T04:03:32;13.50;99.90
12152;DHT22;6139;51.274;7.128;2022-10-31T04:04:37;13.50;99.90
12152;DHT22;6139;51.274;7.128;2022-10-31T04:05:40;13.50;99.90
12152;DHT22;6139;51.274;7.128;2022-10-31T04:06:45;13.50;99.90
12152;DHT22;6139;51.274;7.128;2022-10-31T04:07:51;13.50;99.90
12152;DHT22;6139;51.274;7.128;2022-10-31T04:08:58;13.50;99.90
12152;DHT22;6139;51.274;7.128;2022-10-31T04:10:05;13.50;99.90
12152;DHT22;6139;51.274;7.128;2022-10-31T04:11:09;13.50;99.90
12152;DHT22;6139;51.274;7.128;2022-10-31T04:12:15;13.50;99.90
12152;DHT22;6139;51.274;7.128;2022-10-31T04:13:37;13.50;99.90
12152;DHT22;6139;51.274;7.128;2022-10-31T04:14:47;13.50;99.90
12152;DHT22;6139;51.274;7.128;2022-10-31T04:15:52;13.50;99.90
12152;DHT22;6139;51.274;7.128;2022-10-31T04:16:57;13.50;99.90
12152;DHT22;6139;51.274;7.128;2022-10-31T04:18:07;13.50;99.90
12152;DHT22;6139;51.274;7.128;2022-10-31T04:19:08;13.50;99.90
12152;DHT22;6139;51.274;7.128;2022-10-31T04:20:15;13.50;99.90
12152;DHT22;6139;51.274;7.128;2022-10-31T04:21:16;13.40;99.90
12152;DHT22;6139;51.274;7.128;2022-10-31T04:22:18;13.40;99.90
12152;DHT22;6139;51.274;7.128;2022-10-31T04:23:22;13.40;99.90
12152;DHT22;6139;51.274;7.128;2022-10-31T04:24:25;13.40;99.90
12152;DHT22;6139;51.274;7.128;2022-10-31T04:25:26;13.40;99.90
12152;DHT22;6139;51.274;7.128;2022-10-31T04:26:29;13.40;99.90
12152;DHT22;6139;51.274;7.128;2022-10-31T04:27:30;13.40;99.90
12152;DHT22;6139;51.274;7.128;2022-10-31T04:28:32;13.40;99.90
12152;DHT22;6139;51.274;7.128;2022-10-31T04:29:34;13.40;99.90
12152;DHT22;6139;51.274;7.128;2022-10-31T04:30:36;13.30;99.90
12152;DHT22;6139;51.274;7.128;2022-10-31T04:31:37;13.30;99.90
12152;DHT22;6139;51.274;7.128;2022-10-31T04:32:39;13.30;99.90
12152;DHT22;6139;51.274;7.128;2022-10-31T04:33:41;13.30;99.90
12152;DHT22;6139;51.274;7.128;2022-10-31T04:34:43;13.30;99.90
12152;DHT22;6139;51.274;7.128;2022-10-31T04:35:47;13.20;99.90
12152;DHT22;6139;51.274;7.128;2022-10-31T04:36:49;13.20;99.90
12152;DHT22;6139;51.274;7.128;2022-10-31T04:37:52;13.20;99.90
12152;DHT22;6139;51.274;7.128;2022-10-31T04:38:53;13.10;99.90
12152;DHT22;6139;51.274;7.128;2022-10-31T04:40:15;13.10;99.90
12152;DHT22;6139;51.274;7.128;2022-10-31T04:41:18;13.20;99.90
12152;DHT22;6139;51.274;7.128;2022-10-31T04:42:41;13.10;99.90
12152;DHT22;6139;51.274;7.128;2022-10-31T04:43:41;13.20;99.90
12152;DHT22;6139;51.274;7.128;2022-10-31T04:44:43;13.20;99.90
12152;DHT22;6139;51.274;7.128;2022-10-31T04:45:44;13.10;99.90
12152;DHT22;6139;51.274;7.128;2022-10-31T04:46:47;13.10;99.90
12152;DHT22;6139;51.274;7.128;2022-10-31T04:47:48;13.10;99.90
12152;DHT22;6139;51.274;7.128;2022-10-31T04:48:50;13.00;99.90
12152;DHT22;6139;51.274;7.128;2022-10-31T04:49:52;13.00;99.90
12152;DHT22;6139;51.274;7.128;2022-10-31T04:50:59;13.00;99.90
12152;DHT22;6139;51.274;7.128;2022-10-31T04:52:01;13.00;99.90
12152;DHT22;6139;51.274;7.128;2022-10-31T04:53:03;13.00;99.90
12152;DHT22;6139;51.274;7.128;2022-10-31T04:54:12;13.00;99.90
12152;DHT22;6139;51.274;7.128;2022-10-31T04:55:32;13.00;99.90
12152;DHT22;6139;51.274;7.128;2022-10-31T04:56:53;12.90;99.90
12152;DHT22;6139;51.274;7.128;2022-10-31T04:57:56;12.90;99.90
12152;DHT22;6139;51.274;7.128;2022-10-31T04:58:59;12.90;99.90
12152;DHT22;6139;51.274;7.128;2022-10-31T05:00:04;12.90;99.90
12152;DHT22;6139;51.274;7.128;2022-10-31T05:01:09;12.90;99.90
12152;DHT22;6139;51.274;7.128;2022-10-31T05:02:10;12.90;99.90
12152;DHT22;6139;51.274;7.128;2022-10-31T05:03:24;12.90;99.90
12152;DHT22;6139;51.274;7.128;2022-10-31T05:04:26;13.00;99.90
12152;DHT22;6139;51.274;7.128;2022-10-31T05:05:29;13.00;99.90
12152;DHT22;6139;51.274;7.128;2022-10-31T05:06:35;13.00;99.90
12152;DHT22;6139;51.274;7.128;2022-10-31T05:07:38;13.00;99.90
12152;DHT22;6139;51.274;7.128;2022-10-31T05:08:41;13.00;99.90
12152;DHT22;6139;51.274;7.128;2022-10-31T05:09:44;13.00;99.90
12152;DHT22;6139;51.274;7.128;2022-10-31T05:10:46;13.00;99.90
12152;DHT22;6139;51.274;7.128;2022-10-31T05:11:48;13.00;99.90
12152;DHT22;6139;51.274;7.128;2022-10-31T05:13:18;13.00;99.90
12152;DHT22;6139;51.274;7.128;2022-10-31T05:14:40;13.00;99.90
12152;DHT22;6139;51.274;7.128;2022-10-31T05:16:14;13.00;99.90
12152;DHT22;6139;51.274;7.128;2022-10-31T05:17:35;13.00;99.90
12152;DHT22;6139;51.274;7.128;2022-10-31T05:18:45;13.00;99.90
12152;DHT22;6139;51.274;7.128;2022-10-31T05:20:21;13.00;99.90
12152;DHT22;6139;51.274;7.128;2022-10-31T05:21:47;13.00;99.90
12152;DHT22;6139;51.274;7.128;2022-10-31T05:22:50;13.00;99.90
12152;DHT22;6139;51.274;7.128;2022-10-31T05:23:52;13.00;99.90
12152;DHT22;6139;51.274;7.128;2022-10-31T05:24:55;13.00;99.90
12152;DHT22;6139;51.274;7.128;2022-10-31T05:25:57;13.00;99.90
12152;DHT22;6139;51.274;7.128;2022-10-31T05:26:58;13.00;99.90
12152;DHT22;6139;51.274;7.128;2022-10-31T05:28:00;13.00;99.90
12152;DHT22;6139;51.274;7.128;2022-10-31T05:29:01;13.00;99.90
12152;DHT22;6139;51.274;7.128;2022-10-31T05:30:04;13.00;99.90
12152;DHT22;6139;51.274;7.128;2022-10-31T05:31:06;13.00;99.90
12152;DHT22;6139;51.274;7.128;2022-10-31T05:32:07;13.00;99.90
12152;DHT22;6139;51.274;7.128;2022-10-31T05:33:27;12.90;99.90
12152;DHT22;6139;51.274;7.128;2022-10-31T05:35:05;12.90;99.90
12152;DHT22;6139;51.274;7.128;2022-10-31T05:36:28;12.90;99.90
12152;DHT22;6139;51.274;7.128;2022-10-31T05:37:38;12.90;99.90
12152;DHT22;6139;51.274;7.128;2022-10-31T05:38:39;12.90;99.90
12152;DHT22;6139;51.274;7.128;2022-10-31T05:39:47;12.90;99.90
12152;DHT22;6139;51.274;7.128;2022-10-31T05:40:54;12.80;99.90
12152;DHT22;6139;51.274;7.128;2022-10-31T05:41:58;12.90;99.90
12152;DHT22;6139;51.274;7.128;2022-10-31T05:43:01;12.80;99.90
12152;DHT22;6139;51.274;7.128;2022-10-31T05:44:04;12.80;99.90
12152;DHT22;6139;51.274;7.128;2022-10-31T05:45:09;12.80;99.90
12152;DHT22;6139;51.274;7.128;2022-10-31T05:46:27;12.90;99.90
12152;DHT22;6139;51.274;7.128;2022-10-31T05:47:51;12.90;99.90
12152;DHT22;6139;51.274;7.128;2022-10-31T05:49:18;12.90;99.90
12152;DHT22;6139;51.274;7.128;2022-10-31T05:50:56;12.90;99.90
12152;DHT22;6139;51.274;7.128;2022-10-31T05:51:59;12.90;99.90
12152;DHT22;6139;51.274;7.128;2022-10-31T05:53:11;12.90;99.90
12152;DHT22;6139;51.274;7.128;2022-10-31T05:54:14;12.90;99.90
12152;DHT22;6139;51.274;7.128;2022-10-31T05:55:15;12.90;99.90
12152;DHT22;6139;51.274;7.128;2022-10-31T05:56:32;12.90;99.90
12152;DHT22;6139;51.274;7.128;2022-10-31T05:57:33;12.90;99.90
12152;DHT22;6139;51.274;7.128;2022-10-31T05:58:35;12.90;99.90
12152;DHT22;6139;51.274;7.128;2022-10-31T05:59:40;12.90;99.90
12152;DHT22;6139;51.274;7.128;2022-10-31T06:00:41;12.90;99.90
12152;DHT22;6139;51.274;7.128;2022-10-31T06:01:44;12.90;99.90
12152;DHT22;6139;51.274;7.128;2022-10-31T06:03:01;12.90;99.90
12152;DHT22;6139;51.274;7.128;2022-10-31T06:04:15;12.80;99.90
12152;DHT22;6139;51.274;7.128;2022-10-31T06:05:17;12.80;99.90
12152;DHT22;6139;51.274;7.128;2022-10-31T06:06:19;12.80;99.90
12152;DHT22;6139;51.274;7.128;2022-10-31T06:07:20;12.80;99.90
12152;DHT22;6139;51.274;7.128;2022-10-31T06:08:23;12.80;99.90
12152;DHT22;6139;51.274;7.128;2022-10-31T06:09:25;12.70;99.90
12152;DHT22;6139;51.274;7.128;2022-10-31T06:10:27;12.80;99.90
12152;DHT22;6139;51.274;7.128;2022-10-31T06:11:29;12.70;99.90
12152;DHT22;6139;51.274;7.128;2022-10-31T06:12:37;12.70;99.90
12152;DHT22;6139;51.274;7.128;2022-10-31T06:13:52;12.70;99.90
12152;DHT22;6139;51.274;7.128;2022-10-31T06:14:58;12.70;99.90
12152;DHT22;6139;51.274;7.128;2022-10-31T06:15:59;12.70;99.90
12152;DHT22;6139;51.274;7.128;2022-10-31T06:17:08;12.70;99.90
12152;DHT22;6139;51.274;7.128;2022-10-31T06:18:21;12.70;99.90
12152;DHT22;6139;51.274;7.128;2022-10-31T06:19:25;12.70;99.90
12152;DHT22;6139;51.274;7.128;2022-10-31T06:20:27;12.60;99.90
12152;DHT22;6139;51.274;7.128;2022-10-31T06:21:34;12.70;99.90
12152;DHT22;6139;51.274;7.128;2022-10-31T06:22:35;12.70;99.90
12152;DHT22;6139;51.274;7.128;2022-10-31T06:23:38;12.70;99.90
12152;DHT22;6139;51.274;7.128;2022-10-31T06:24:58;12.70;99.90
12152;DHT22;6139;51.274;7.128;2022-10-31T06:26:08;12.70;99.90
12152;DHT22;6139;51.274;7.128;2022-10-31T06:27:09;12.70;99.90
12152;DHT22;6139;51.274;7.128;2022-10-31T06:28:11;12.70;99.90
12152;DHT22;6139;51.274;7.128;2022-10-31T06:29:26;12.70;99.90
12152;DHT22;6139;51.274;7.128;2022-10-31T06:30:38;12.70;99.90
12152;DHT22;6139;51.274;7.128;2022-10-31T06:31:40;12.70;99.90
12152;DHT22;6139;51.274;7.128;2022-10-31T06:32:42;12.70;99.90
12152;DHT22;6139;51.274;7.128;2022-10-31T06:33:44;12.70;99.90
12152;DHT22;6139;51.274;7.128;2022-10-31T06:34:45;12.70;99.90
12152;DHT22;6139;51.274;7.128;2022-10-31T06:35:48;12.70;99.90
12152;DHT22;6139;51.274;7.128;2022-10-31T06:36:51;12.70;99.90
12152;DHT22;6139;51.274;7.128;2022-10-31T06:37:57;12.70;99.90
12152;DHT22;6139;51.274;7.128;2022-10-31T06:39:08;12.80;99.90
12152;DHT22;6139;51.274;7.128;2022-10-31T06:40:11;12.70;99.90
12152;DHT22;6139;51.274;7.128;2022-10-31T06:41:33;12.70;99.90
12152;DHT22;6139;51.274;7.128;2022-10-31T06:42:37;12.70;99.90
12152;DHT22;6139;51.274;7.128;2022-10-31T06:43:38;12.70;99.90
12152;DHT22;6139;51.274;7.128;2022-10-31T06:45:00;12.80;99.90
12152;DHT22;6139;51.274;7.128;2022-10-31T06:46:40;12.80;99.90
12152;DHT22;6139;51.274;7.128;2022-10-31T06:48:04;12.80;99.90
12152;DHT22;6139;51.274;7.128;2022-10-31T06:49:10;12.80;99.90
12152;DHT22;6139;51.274;7.128;2022-10-31T06:50:24;12.80;99.90
12152;DHT22;6139;51.274;7.128;2022-10-31T06:51:27;12.80;99.90
12152;DHT22;6139;51.274;7.128;2022-10-31T06:52:29;12.80;99.90
12152;DHT22;6139;51.274;7.128;2022-10-31T06:53:30;12.80;99.90
12152;DHT22;6139;51.274;7.128;2022-10-31T06:54:33;12.80;99.90
12152;DHT22;6139;51.274;7.128;2022-10-31T06:55:34;12.80;99.90
12152;DHT22;6139;51.274;7.128;2022-10-31T06:56:37;12.80;99.90
12152;DHT22;6139;51.274;7.128;2022-10-31T06:57:38;12.90;99.90
12152;DHT22;6139;51.274;7.128;2022-10-31T06:58:42;12.90;99.90
12152;DHT22;6139;51.274;7.128;2022-10-31T06:59:45;12.90;99.90
12152;DHT22;6139;51.274;7.128;2022-10-31T07:00:54;12.90;99.90
12152;DHT22;6139;51.274;7.128;2022-10-31T07:01:57;12.90;99.90
12152;DHT22;6139;51.274;7.128;2022-10-31T07:03:01;12.90;99.90
12152;DHT22;6139;51.274;7.128;2022-10-31T07:04:02;12.90;99.90
12152;DHT22;6139;51.274;7.128;2022-10-31T07:05:08;12.90;99.90